sensor_id;sensor_type;location;lat;lon;timestamp;P1;durP1;ratioP1;P2;durP2;ratioP2
42964;SDS011;28604;51.204;22.552;2023-07-22T00:01:03;7.13;;;5.78;;
42964;SDS011;28604;51.204;22.552;2023-07-22T00:03:34;5.93;;;5.35;;
42964;SDS011;28604;51.204;22.552;2023-07-22T00:06:04;10.95;;;5.03;;
42964;SDS011;28604;51.204;22.552;2023-07-22T00:08:31;4.88;;;4.40;;
42964;SDS011;28604;51.204;22.552;2023-07-22T00:10:58;4.93;;;4.20;;
42964;SDS011;28604;51.204;22.552;2023-07-22T00:13:23;9.75;;;4.05;;
42964;SDS011;28604;51.204;22.552;2023-07-22T00:15:53;5.65;;;4.35;;
42964;SDS011;28604;51.204;22.552;2023-07-22T00:18:19;4.70;;;3.60;;
42964;SDS011;28604;51.204;22.552;2023-07-22T00:20:45;4.18;;;3.78;;
42964;SDS011;28604;51.204;22.552;2023-07-22T00:23:11;3.10;;;2.88;;
42964;SDS011;28604;51.204;22.552;2023-07-22T00:25:37;3.55;;;3.35;;
42964;SDS011;28604;51.204;22.552;2023-07-22T00:28:03;4.68;;;2.70;;
42964;SDS011;28604;51.204;22.552;2023-07-22T00:30:29;7.10;;;3.78;;
42964;SDS011;28604;51.204;22.552;2023-07-22T00:32:55;9.85;;;3.35;;
42964;SDS011;28604;51.204;22.552;2023-07-22T00:35:21;4.53;;;3.58;;
42964;SDS011;28604;51.204;22.552;2023-07-22T00:37:47;11.88;;;2.95;;
42964;SDS011;28604;51.204;22.552;2023-07-22T00:40:13;2.83;;;2.63;;
42964;SDS011;28604;51.204;22.552;2023-07-22T00:42:39;3.30;;;3.10;;
42964;SDS011;28604;51.204;22.552;2023-07-22T00:45:05;5.90;;;3.03;;
42964;SDS011;28604;51.204;22.552;2023-07-22T00:47:33;5.70;;;3.33;;
42964;SDS011;28604;51.204;22.552;2023-07-22T00:50:01;5.63;;;3.15;;
42964;SDS011;28604;51.204;22.552;2023-07-22T00:52:28;13.23;;;2.67;;
42964;SDS011;28604;51.204;22.552;2023-07-22T00:54:55;4.68;;;2.83;;
42964;SDS011;28604;51.204;22.552;2023-07-22T01:00:13;4.65;;;2.92;;
42964;SDS011;28604;51.204;22.552;2023-07-22T01:02:41;2.45;;;2.40;;
42964;SDS011;28604;51.204;22.552;2023-07-22T01:05:09;5.22;;;2.92;;
42964;SDS011;28604;51.204;22.552;2023-07-22T01:07:36;3.33;;;3.00;;
42964;SDS011;28604;51.204;22.552;2023-07-22T01:10:04;4.70;;;2.53;;
42964;SDS011;28604;51.204;22.552;2023-07-22T01:12:31;5.63;;;3.00;;
42964;SDS011;28604;51.204;22.552;2023-07-22T01:14:57;3.60;;;2.80;;
42964;SDS011;28604;51.204;22.552;2023-07-22T01:17:23;4.47;;;3.08;;
42964;SDS011;28604;51.204;22.552;2023-07-22T01:19:50;4.88;;;2.85;;
42964;SDS011;28604;51.204;22.552;2023-07-22T01:22:17;4.28;;;3.22;;
42964;SDS011;28604;51.204;22.552;2023-07-22T01:24:43;3.63;;;2.85;;
42964;SDS011;28604;51.204;22.552;2023-07-22T01:27:09;6.40;;;3.47;;
42964;SDS011;28604;51.204;22.552;2023-07-22T01:29:37;5.40;;;3.10;;
42964;SDS011;28604;51.204;22.552;2023-07-22T01:32:03;3.30;;;3.10;;
42964;SDS011;28604;51.204;22.552;2023-07-22T01:34:30;5.13;;;2.83;;
42964;SDS011;28604;51.204;22.552;2023-07-22T01:36:57;4.95;;;3.10;;
42964;SDS011;28604;51.204;22.552;2023-07-22T01:39:23;6.50;;;3.42;;
42964;SDS011;28604;51.204;22.552;2023-07-22T01:41:49;10.13;;;3.63;;
42964;SDS011;28604;51.204;22.552;2023-07-22T01:44:15;3.05;;;2.85;;
42964;SDS011;28604;51.204;22.552;2023-07-22T01:46:41;3.95;;;3.22;;
42964;SDS011;28604;51.204;22.552;2023-07-22T01:49:10;6.35;;;3.70;;
42964;SDS011;28604;51.204;22.552;2023-07-22T01:51:37;6.50;;;3.97;;
42964;SDS011;28604;51.204;22.552;2023-07-22T01:54:05;3.20;;;3.00;;
42964;SDS011;28604;51.204;22.552;2023-07-22T01:56:32;6.35;;;4.15;;
42964;SDS011;28604;51.204;22.552;2023-07-22T01:58:58;12.45;;;4.63;;
42964;SDS011;28604;51.204;22.552;2023-07-22T02:01:24;4.45;;;3.83;;
42964;SDS011;28604;51.204;22.552;2023-07-22T02:03:51;6.93;;;4.28;;
42964;SDS011;28604;51.204;22.552;2023-07-22T02:06:17;3.35;;;3.13;;
42964;SDS011;28604;51.204;22.552;2023-07-22T02:08:43;3.28;;;2.97;;
42964;SDS011;28604;51.204;22.552;2023-07-22T02:11:08;3.38;;;3.10;;
42964;SDS011;28604;51.204;22.552;2023-07-22T02:13:35;8.25;;;3.80;;
42964;SDS011;28604;51.204;22.552;2023-07-22T02:16:01;3.30;;;2.90;;
42964;SDS011;28604;51.204;22.552;2023-07-22T02:18:28;5.57;;;4.03;;
42964;SDS011;28604;51.204;22.552;2023-07-22T02:20:55;13.00;;;3.38;;
42964;SDS011;28604;51.204;22.552;2023-07-22T02:23:22;7.30;;;3.17;;
42964;SDS011;28604;51.204;22.552;2023-07-22T02:25:52;7.03;;;3.60;;
42964;SDS011;28604;51.204;22.552;2023-07-22T02:28:19;6.32;;;2.95;;
42964;SDS011;28604;51.204;22.552;2023-07-22T02:30:47;8.68;;;2.83;;
42964;SDS011;28604;51.204;22.552;2023-07-22T02:33:14;5.90;;;2.83;;
42964;SDS011;28604;51.204;22.552;2023-07-22T02:35:41;10.20;;;3.55;;
42964;SDS011;28604;51.204;22.552;2023-07-22T02:38:07;9.27;;;3.08;;
42964;SDS011;28604;51.204;22.552;2023-07-22T02:40:34;7.43;;;2.83;;
42964;SDS011;28604;51.204;22.552;2023-07-22T02:43:00;6.90;;;3.55;;
42964;SDS011;28604;51.204;22.552;2023-07-22T02:45:26;5.38;;;3.30;;
42964;SDS011;28604;51.204;22.552;2023-07-22T02:47:52;7.05;;;3.10;;
42964;SDS011;28604;51.204;22.552;2023-07-22T02:50:19;3.67;;;3.38;;
42964;SDS011;28604;51.204;22.552;2023-07-22T02:52:45;4.15;;;3.15;;
42964;SDS011;28604;51.204;22.552;2023-07-22T02:55:12;3.88;;;3.17;;
42964;SDS011;28604;51.204;22.552;2023-07-22T02:57:45;7.97;;;3.40;;
42964;SDS011;28604;51.204;22.552;2023-07-22T03:00:12;6.63;;;3.65;;
42964;SDS011;28604;51.204;22.552;2023-07-22T03:02:40;17.15;;;4.22;;
42964;SDS011;28604;51.204;22.552;2023-07-22T03:05:07;13.05;;;4.85;;
42964;SDS011;28604;51.204;22.552;2023-07-22T03:07:37;6.10;;;4.38;;
42964;SDS011;28604;51.204;22.552;2023-07-22T03:10:04;6.72;;;4.07;;
42964;SDS011;28604;51.204;22.552;2023-07-22T03:12:32;9.95;;;4.57;;
42964;SDS011;28604;51.204;22.552;2023-07-22T03:14:58;9.68;;;4.95;;
42964;SDS011;28604;51.204;22.552;2023-07-22T03:17:24;19.50;;;5.07;;
42964;SDS011;28604;51.204;22.552;2023-07-22T03:19:50;10.68;;;5.43;;
42964;SDS011;28604;51.204;22.552;2023-07-22T03:22:16;18.67;;;5.72;;
42964;SDS011;28604;51.204;22.552;2023-07-22T03:24:43;17.15;;;5.45;;
42964;SDS011;28604;51.204;22.552;2023-07-22T03:27:10;14.70;;;5.00;;
42964;SDS011;28604;51.204;22.552;2023-07-22T03:29:36;11.18;;;5.28;;
42964;SDS011;28604;51.204;22.552;2023-07-22T03:32:03;6.80;;;4.60;;
42964;SDS011;28604;51.204;22.552;2023-07-22T03:34:29;7.07;;;5.30;;
42964;SDS011;28604;51.204;22.552;2023-07-22T03:36:57;9.10;;;5.38;;
42964;SDS011;28604;51.204;22.552;2023-07-22T03:39:23;7.07;;;4.72;;
42964;SDS011;28604;51.204;22.552;2023-07-22T03:41:50;10.13;;;4.93;;
42964;SDS011;28604;51.204;22.552;2023-07-22T03:44:16;9.82;;;5.07;;
42964;SDS011;28604;51.204;22.552;2023-07-22T03:46:42;6.47;;;5.03;;
42964;SDS011;28604;51.204;22.552;2023-07-22T03:49:08;8.52;;;4.90;;
42964;SDS011;28604;51.204;22.552;2023-07-22T03:51:34;6.35;;;4.68;;
42964;SDS011;28604;51.204;22.552;2023-07-22T03:54:00;10.73;;;5.68;;
42964;SDS011;28604;51.204;22.552;2023-07-22T03:56:26;6.95;;;4.85;;
42964;SDS011;28604;51.204;22.552;2023-07-22T03:58:52;11.70;;;4.65;;
42964;SDS011;28604;51.204;22.552;2023-07-22T04:01:18;6.57;;;4.55;;
42964;SDS011;28604;51.204;22.552;2023-07-22T04:03:45;5.72;;;5.10;;
42964;SDS011;28604;51.204;22.552;2023-07-22T04:06:11;7.38;;;4.78;;
42964;SDS011;28604;51.204;22.552;2023-07-22T04:08:37;5.65;;;4.63;;
42964;SDS011;28604;51.204;22.552;2023-07-22T04:11:03;6.00;;;4.80;;
42964;SDS011;28604;51.204;22.552;2023-07-22T04:13:29;9.43;;;5.28;;
42964;SDS011;28604;51.204;22.552;2023-07-22T04:15:55;5.30;;;4.82;;
42964;SDS011;28604;51.204;22.552;2023-07-22T04:18:21;7.30;;;4.85;;
42964;SDS011;28604;51.204;22.552;2023-07-22T04:20:48;8.35;;;5.10;;
42964;SDS011;28604;51.204;22.552;2023-07-22T04:23:20;5.05;;;4.57;;
42964;SDS011;28604;51.204;22.552;2023-07-22T04:25:46;6.97;;;4.88;;
42964;SDS011;28604;51.204;22.552;2023-07-22T04:28:12;7.05;;;4.95;;
42964;SDS011;28604;51.204;22.552;2023-07-22T04:30:38;12.40;;;5.15;;
42964;SDS011;28604;51.204;22.552;2023-07-22T04:33:05;5.55;;;5.05;;
42964;SDS011;28604;51.204;22.552;2023-07-22T04:35:32;7.43;;;5.28;;
42964;SDS011;28604;51.204;22.552;2023-07-22T04:37:58;6.18;;;4.10;;
42964;SDS011;28604;51.204;22.552;2023-07-22T04:40:25;4.60;;;4.22;;
42964;SDS011;28604;51.204;22.552;2023-07-22T04:42:51;6.50;;;5.20;;
42964;SDS011;28604;51.204;22.552;2023-07-22T04:45:17;7.63;;;4.78;;
42964;SDS011;28604;51.204;22.552;2023-07-22T04:47:46;4.88;;;3.92;;
42964;SDS011;28604;51.204;22.552;2023-07-22T04:50:14;5.72;;;4.20;;
42964;SDS011;28604;51.204;22.552;2023-07-22T04:52:42;4.78;;;4.47;;
42964;SDS011;28604;51.204;22.552;2023-07-22T04:55:10;8.88;;;4.57;;
42964;SDS011;28604;51.204;22.552;2023-07-22T04:57:36;12.48;;;10.73;;
42964;SDS011;28604;51.204;22.552;2023-07-22T05:00:03;11.60;;;5.43;;
42964;SDS011;28604;51.204;22.552;2023-07-22T05:02:29;8.98;;;5.55;;
42964;SDS011;28604;51.204;22.552;2023-07-22T05:04:56;7.88;;;6.45;;
42964;SDS011;28604;51.204;22.552;2023-07-22T05:07:22;8.00;;;5.80;;
42964;SDS011;28604;51.204;22.552;2023-07-22T05:09:48;6.50;;;5.88;;
42964;SDS011;28604;51.204;22.552;2023-07-22T05:12:15;10.50;;;6.43;;
42964;SDS011;28604;51.204;22.552;2023-07-22T05:14:41;10.88;;;6.40;;
42964;SDS011;28604;51.204;22.552;2023-07-22T05:17:06;11.90;;;7.15;;
42964;SDS011;28604;51.204;22.552;2023-07-22T05:19:33;9.50;;;7.53;;
42964;SDS011;28604;51.204;22.552;2023-07-22T05:21:58;10.18;;;6.38;;
42964;SDS011;28604;51.204;22.552;2023-07-22T05:24:24;9.30;;;6.47;;
42964;SDS011;28604;51.204;22.552;2023-07-22T05:26:50;7.18;;;6.55;;
42964;SDS011;28604;51.204;22.552;2023-07-22T05:29:16;11.80;;;7.10;;
42964;SDS011;28604;51.204;22.552;2023-07-22T05:31:42;11.45;;;6.75;;
42964;SDS011;28604;51.204;22.552;2023-07-22T05:34:08;10.07;;;7.32;;
42964;SDS011;28604;51.204;22.552;2023-07-22T05:36:34;8.40;;;6.88;;
42964;SDS011;28604;51.204;22.552;2023-07-22T05:39:00;8.50;;;7.05;;
42964;SDS011;28604;51.204;22.552;2023-07-22T05:41:26;6.90;;;5.35;;
42964;SDS011;28604;51.204;22.552;2023-07-22T05:43:52;6.50;;;5.88;;
42964;SDS011;28604;51.204;22.552;2023-07-22T05:46:18;5.97;;;4.93;;
42964;SDS011;28604;51.204;22.552;2023-07-22T05:48:44;6.18;;;5.25;;
42964;SDS011;28604;51.204;22.552;2023-07-22T05:51:09;5.88;;;5.13;;
42964;SDS011;28604;51.204;22.552;2023-07-22T05:53:35;8.80;;;5.88;;
42964;SDS011;28604;51.204;22.552;2023-07-22T05:56:01;5.40;;;4.40;;
42964;SDS011;28604;51.204;22.552;2023-07-22T05:58:27;7.40;;;4.85;;
42964;SDS011;28604;51.204;22.552;2023-07-22T06:00:54;5.55;;;5.00;;
42964;SDS011;28604;51.204;22.552;2023-07-22T06:03:21;5.63;;;4.65;;
42964;SDS011;28604;51.204;22.552;2023-07-22T06:05:47;6.32;;;4.68;;
42964;SDS011;28604;51.204;22.552;2023-07-22T06:08:13;5.18;;;4.43;;
42964;SDS011;28604;51.204;22.552;2023-07-22T06:10:39;7.93;;;4.90;;
42964;SDS011;28604;51.204;22.552;2023-07-22T06:13:06;6.97;;;4.72;;
42964;SDS011;28604;51.204;22.552;2023-07-22T06:15:32;7.00;;;4.28;;
42964;SDS011;28604;51.204;22.552;2023-07-22T06:17:58;5.32;;;4.13;;
42964;SDS011;28604;51.204;22.552;2023-07-22T06:20:25;4.30;;;3.92;;
42964;SDS011;28604;51.204;22.552;2023-07-22T06:22:51;3.95;;;3.65;;
42964;SDS011;28604;51.204;22.552;2023-07-22T06:25:17;4.82;;;4.38;;
42964;SDS011;28604;51.204;22.552;2023-07-22T06:27:43;3.83;;;3.58;;
42964;SDS011;28604;51.204;22.552;2023-07-22T06:30:09;3.38;;;3.17;;
42964;SDS011;28604;51.204;22.552;2023-07-22T06:32:39;4.40;;;3.70;;
42964;SDS011;28604;51.204;22.552;2023-07-22T06:35:05;3.90;;;3.05;;
42964;SDS011;28604;51.204;22.552;2023-07-22T06:37:31;6.68;;;3.80;;
42964;SDS011;28604;51.204;22.552;2023-07-22T06:39:57;3.42;;;3.13;;
42964;SDS011;28604;51.204;22.552;2023-07-22T06:42:23;3.17;;;3.00;;
42964;SDS011;28604;51.204;22.552;2023-07-22T06:44:48;3.38;;;3.08;;
42964;SDS011;28604;51.204;22.552;2023-07-22T06:47:15;5.32;;;3.15;;
42964;SDS011;28604;51.204;22.552;2023-07-22T06:52:22;3.97;;;2.72;;
42964;SDS011;28604;51.204;22.552;2023-07-22T06:54:50;3.05;;;2.58;;
42964;SDS011;28604;51.204;22.552;2023-07-22T06:57:16;3.22;;;2.97;;
42964;SDS011;28604;51.204;22.552;2023-07-22T06:59:41;4.20;;;2.30;;
42964;SDS011;28604;51.204;22.552;2023-07-22T07:02:08;4.95;;;2.83;;
42964;SDS011;28604;51.204;22.552;2023-07-22T07:04:34;4.82;;;2.60;;
42964;SDS011;28604;51.204;22.552;2023-07-22T07:07:00;2.97;;;2.88;;
42964;SDS011;28604;51.204;22.552;2023-07-22T07:09:26;6.30;;;2.40;;
42964;SDS011;28604;51.204;22.552;2023-07-22T07:11:52;2.28;;;1.88;;
42964;SDS011;28604;51.204;22.552;2023-07-22T07:14:20;2.30;;;2.15;;
42964;SDS011;28604;51.204;22.552;2023-07-22T07:16:46;2.20;;;1.63;;
42964;SDS011;28604;51.204;22.552;2023-07-22T07:19:12;3.78;;;2.20;;
42964;SDS011;28604;51.204;22.552;2023-07-22T07:21:39;2.20;;;1.70;;
42964;SDS011;28604;51.204;22.552;2023-07-22T07:24:04;2.00;;;1.83;;
42964;SDS011;28604;51.204;22.552;2023-07-22T07:26:31;1.58;;;1.45;;
42964;SDS011;28604;51.204;22.552;2023-07-22T07:28:57;4.60;;;1.67;;
42964;SDS011;28604;51.204;22.552;2023-07-22T07:31:23;1.80;;;1.70;;
42964;SDS011;28604;51.204;22.552;2023-07-22T07:33:48;5.88;;;1.45;;
42964;SDS011;28604;51.204;22.552;2023-07-22T07:36:15;1.95;;;1.75;;
42964;SDS011;28604;51.204;22.552;2023-07-22T07:38:40;2.65;;;1.58;;
42964;SDS011;28604;51.204;22.552;2023-07-22T07:41:07;5.55;;;1.42;;
42964;SDS011;28604;51.204;22.552;2023-07-22T07:43:40;1.52;;;1.48;;
42964;SDS011;28604;51.204;22.552;2023-07-22T07:46:19;1.83;;;1.73;;
42964;SDS011;28604;51.204;22.552;2023-07-22T07:48:47;1.92;;;1.83;;
42964;SDS011;28604;51.204;22.552;2023-07-22T07:51:15;1.77;;;1.63;;
42964;SDS011;28604;51.204;22.552;2023-07-22T07:53:42;1.65;;;1.40;;
42964;SDS011;28604;51.204;22.552;2023-07-22T07:56:25;2.95;;;1.55;;
42964;SDS011;28604;51.204;22.552;2023-07-22T07:58:52;1.85;;;1.48;;
42964;SDS011;28604;51.204;22.552;2023-07-22T08:01:19;2.42;;;2.22;;
42964;SDS011;28604;51.204;22.552;2023-07-22T08:03:46;6.57;;;2.20;;
42964;SDS011;28604;51.204;22.552;2023-07-22T08:06:12;5.03;;;2.30;;
42964;SDS011;28604;51.204;22.552;2023-07-22T08:08:39;3.38;;;1.85;;
42964;SDS011;28604;51.204;22.552;2023-07-22T08:13:36;3.03;;;1.63;;
42964;SDS011;28604;51.204;22.552;2023-07-22T08:16:03;1.48;;;1.33;;
42964;SDS011;28604;51.204;22.552;2023-07-22T08:18:32;2.58;;;2.38;;
42964;SDS011;28604;51.204;22.552;2023-07-22T08:20:59;2.72;;;1.55;;
42964;SDS011;28604;51.204;22.552;2023-07-22T08:23:25;1.48;;;1.40;;
42964;SDS011;28604;51.204;22.552;2023-07-22T08:25:51;1.20;;;1.15;;
42964;SDS011;28604;51.204;22.552;2023-07-22T08:28:17;1.50;;;1.40;;
42964;SDS011;28604;51.204;22.552;2023-07-22T08:30:43;1.60;;;1.50;;
42964;SDS011;28604;51.204;22.552;2023-07-22T08:33:10;3.55;;;1.60;;
42964;SDS011;28604;51.204;22.552;2023-07-22T08:35:39;3.63;;;1.35;;
42964;SDS011;28604;51.204;22.552;2023-07-22T08:38:06;4.30;;;1.48;;
42964;SDS011;28604;51.204;22.552;2023-07-22T08:40:33;2.38;;;1.52;;
42964;SDS011;28604;51.204;22.552;2023-07-22T08:43:05;1.27;;;1.27;;
42964;SDS011;28604;51.204;22.552;2023-07-22T08:45:37;2.15;;;1.17;;
42964;SDS011;28604;51.204;22.552;2023-07-22T08:48:04;1.38;;;1.27;;
42964;SDS011;28604;51.204;22.552;2023-07-22T08:50:41;3.08;;;1.55;;
42964;SDS011;28604;51.204;22.552;2023-07-22T08:53:20;2.08;;;1.85;;
42964;SDS011;28604;51.204;22.552;2023-07-22T08:55:47;1.23;;;0.83;;
42964;SDS011;28604;51.204;22.552;2023-07-22T08:58:15;2.15;;;1.08;;
42964;SDS011;28604;51.204;22.552;2023-07-22T09:00:42;3.17;;;1.20;;
42964;SDS011;28604;51.204;22.552;2023-07-22T09:03:09;1.40;;;1.30;;
42964;SDS011;28604;51.204;22.552;2023-07-22T09:05:36;2.40;;;1.20;;
42964;SDS011;28604;51.204;22.552;2023-07-22T09:08:06;0.98;;;0.82;;
42964;SDS011;28604;51.204;22.552;2023-07-22T09:10:33;0.73;;;0.73;;
42964;SDS011;28604;51.204;22.552;2023-07-22T09:12:59;0.90;;;0.90;;
42964;SDS011;28604;51.204;22.552;2023-07-22T09:15:27;5.28;;;1.20;;
42964;SDS011;28604;51.204;22.552;2023-07-22T09:17:53;1.15;;;1.00;;
42964;SDS011;28604;51.204;22.552;2023-07-22T09:20:19;0.65;;;0.65;;
42964;SDS011;28604;51.204;22.552;2023-07-22T09:22:50;1.35;;;1.25;;
42964;SDS011;28604;51.204;22.552;2023-07-22T09:25:17;1.15;;;0.88;;
42964;SDS011;28604;51.204;22.552;2023-07-22T09:27:45;0.98;;;0.90;;
42964;SDS011;28604;51.204;22.552;2023-07-22T09:30:22;1.52;;;0.82;;
42964;SDS011;28604;51.204;22.552;2023-07-22T09:32:58;4.38;;;1.48;;
42964;SDS011;28604;51.204;22.552;2023-07-22T09:35:27;1.00;;;1.00;;
42964;SDS011;28604;51.204;22.552;2023-07-22T09:37:54;3.67;;;1.25;;
42964;SDS011;28604;51.204;22.552;2023-07-22T09:40:24;4.65;;;1.23;;
42964;SDS011;28604;51.204;22.552;2023-07-22T09:42:55;1.67;;;1.10;;
42964;SDS011;28604;51.204;22.552;2023-07-22T09:45:23;1.27;;;0.98;;
42964;SDS011;28604;51.204;22.552;2023-07-22T09:47:50;0.68;;;0.68;;
42964;SDS011;28604;51.204;22.552;2023-07-22T09:50:24;4.47;;;1.05;;
42964;SDS011;28604;51.204;22.552;2023-07-22T09:52:55;1.10;;;1.10;;
42964;SDS011;28604;51.204;22.552;2023-07-22T09:57:52;3.85;;;1.10;;
42964;SDS011;28604;51.204;22.552;2023-07-22T10:00:20;0.80;;;0.80;;
42964;SDS011;28604;51.204;22.552;2023-07-22T10:02:47;4.93;;;0.85;;
42964;SDS011;28604;51.204;22.552;2023-07-22T10:05:20;0.95;;;0.70;;
42964;SDS011;28604;51.204;22.552;2023-07-22T10:07:51;1.08;;;0.88;;
42964;SDS011;28604;51.204;22.552;2023-07-22T10:10:20;1.02;;;0.50;;
42964;SDS011;28604;51.204;22.552;2023-07-22T10:12:49;1.25;;;0.60;;
42964;SDS011;28604;51.204;22.552;2023-07-22T10:15:15;1.95;;;0.80;;
42964;SDS011;28604;51.204;22.552;2023-07-22T10:17:45;0.77;;;0.65;;
42964;SDS011;28604;51.204;22.552;2023-07-22T10:20:12;6.95;;;0.77;;
42964;SDS011;28604;51.204;22.552;2023-07-22T10:22:42;1.30;;;0.73;;
42964;SDS011;28604;51.204;22.552;2023-07-22T10:25:10;0.75;;;0.75;;
42964;SDS011;28604;51.204;22.552;2023-07-22T10:27:38;4.95;;;0.70;;
42964;SDS011;28604;51.204;22.552;2023-07-22T10:30:06;2.70;;;1.27;;
42964;SDS011;28604;51.204;22.552;2023-07-22T10:32:40;0.98;;;0.85;;
42964;SDS011;28604;51.204;22.552;2023-07-22T10:35:11;2.67;;;0.90;;
42964;SDS011;28604;51.204;22.552;2023-07-22T10:37:44;0.80;;;0.80;;
42964;SDS011;28604;51.204;22.552;2023-07-22T10:40:27;0.80;;;0.45;;
42964;SDS011;28604;51.204;22.552;2023-07-22T10:42:57;2.85;;;0.82;;
42964;SDS011;28604;51.204;22.552;2023-07-22T10:45:28;2.05;;;0.55;;
42964;SDS011;28604;51.204;22.552;2023-07-22T10:48:07;1.10;;;1.10;;
42964;SDS011;28604;51.204;22.552;2023-07-22T10:50:41;1.67;;;0.68;;
42964;SDS011;28604;51.204;22.552;2023-07-22T10:53:50;0.80;;;0.80;;
42964;SDS011;28604;51.204;22.552;2023-07-22T11:01:21;1.58;;;1.38;;
42964;SDS011;28604;51.204;22.552;2023-07-22T11:06:40;2.13;;;0.60;;
42964;SDS011;28604;51.204;22.552;2023-07-22T11:09:33;3.42;;;0.88;;
42964;SDS011;28604;51.204;22.552;2023-07-22T11:14:29;0.82;;;0.38;;
42964;SDS011;28604;51.204;22.552;2023-07-22T11:16:57;1.77;;;0.45;;
42964;SDS011;28604;51.204;22.552;2023-07-22T11:19:26;0.35;;;0.22;;
42964;SDS011;28604;51.204;22.552;2023-07-22T11:21:53;0.50;;;0.20;;
42964;SDS011;28604;51.204;22.552;2023-07-22T11:24:19;2.03;;;0.57;;
42964;SDS011;28604;51.204;22.552;2023-07-22T11:26:46;1.83;;;0.30;;
42964;SDS011;28604;51.204;22.552;2023-07-22T11:29:13;2.20;;;0.60;;
42964;SDS011;28604;51.204;22.552;2023-07-22T11:31:40;1.95;;;0.25;;
42964;SDS011;28604;51.204;22.552;2023-07-22T11:34:11;2.60;;;0.30;;
42964;SDS011;28604;51.204;22.552;2023-07-22T11:36:39;0.50;;;0.50;;
42964;SDS011;28604;51.204;22.552;2023-07-22T11:39:09;6.68;;;1.20;;
42964;SDS011;28604;51.204;22.552;2023-07-22T11:41:39;0.75;;;0.55;;
42964;SDS011;28604;51.204;22.552;2023-07-22T11:44:08;0.80;;;0.80;;
42964;SDS011;28604;51.204;22.552;2023-07-22T11:51:53;0.30;;;0.30;;
42964;SDS011;28604;51.204;22.552;2023-07-22T11:54:23;2.00;;;0.60;;
42964;SDS011;28604;51.204;22.552;2023-07-22T11:56:49;1.40;;;1.30;;
42964;SDS011;28604;51.204;22.552;2023-07-22T11:59:15;3.13;;;0.30;;
42964;SDS011;28604;51.204;22.552;2023-07-22T12:01:45;2.15;;;0.32;;
42964;SDS011;28604;51.204;22.552;2023-07-22T12:04:12;1.02;;;0.25;;
42964;SDS011;28604;51.204;22.552;2023-07-22T12:06:39;0.63;;;0.47;;
42964;SDS011;28604;51.204;22.552;2023-07-22T12:09:07;0.35;;;0.35;;
42964;SDS011;28604;51.204;22.552;2023-07-22T12:11:37;0.70;;;0.40;;
42964;SDS011;28604;51.204;22.552;2023-07-22T12:16:36;0.47;;;0.30;;
42964;SDS011;28604;51.204;22.552;2023-07-22T12:19:04;0.20;;;0.20;;
42964;SDS011;28604;51.204;22.552;2023-07-22T12:21:31;0.55;;;0.10;;
42964;SDS011;28604;51.204;22.552;2023-07-22T12:23:58;0.40;;;0.20;;
42964;SDS011;28604;51.204;22.552;2023-07-22T12:26:24;0.85;;;0.13;;
42964;SDS011;28604;51.204;22.552;2023-07-22T12:28:51;1.10;;;0.30;;
42964;SDS011;28604;51.204;22.552;2023-07-22T12:31:17;0.65;;;0.35;;
42964;SDS011;28604;51.204;22.552;2023-07-22T12:33:43;2.95;;;0.20;;
42964;SDS011;28604;51.204;22.552;2023-07-22T12:36:09;3.50;;;0.20;;
42964;SDS011;28604;51.204;22.552;2023-07-22T12:38:35;0.52;;;0.30;;
42964;SDS011;28604;51.204;22.552;2023-07-22T12:41:01;1.35;;;0.30;;
42964;SDS011;28604;51.204;22.552;2023-07-22T12:43:27;0.20;;;0.20;;
42964;SDS011;28604;51.204;22.552;2023-07-22T12:45:53;0.57;;;0.57;;
42964;SDS011;28604;51.204;22.552;2023-07-22T12:48:19;0.73;;;0.20;;
42964;SDS011;28604;51.204;22.552;2023-07-22T12:50:45;0.60;;;0.20;;
42964;SDS011;28604;51.204;22.552;2023-07-22T12:53:14;0.30;;;0.30;;
42964;SDS011;28604;51.204;22.552;2023-07-22T12:55:40;1.27;;;0.47;;
42964;SDS011;28604;51.204;22.552;2023-07-22T12:58:06;3.92;;;0.45;;
42964;SDS011;28604;51.204;22.552;2023-07-22T13:00:32;0.20;;;0.20;;
42964;SDS011;28604;51.204;22.552;2023-07-22T13:02:57;0.10;;;0.10;;
42964;SDS011;28604;51.204;22.552;2023-07-22T13:05:24;0.10;;;0.10;;
42964;SDS011;28604;51.204;22.552;2023-07-22T13:07:50;0.10;;;0.10;;
42964;SDS011;28604;51.204;22.552;2023-07-22T13:10:19;5.15;;;0.10;;
42964;SDS011;28604;51.204;22.552;2023-07-22T13:12:49;6.95;;;0.32;;
42964;SDS011;28604;51.204;22.552;2023-07-22T13:15:15;0.30;;;0.30;;
42964;SDS011;28604;51.204;22.552;2023-07-22T13:17:41;0.13;;;0.13;;
42964;SDS011;28604;51.204;22.552;2023-07-22T13:20:07;2.65;;;0.25;;
42964;SDS011;28604;51.204;22.552;2023-07-22T13:22:43;1.17;;;0.20;;
42964;SDS011;28604;51.204;22.552;2023-07-22T13:25:09;0.30;;;0.30;;
42964;SDS011;28604;51.204;22.552;2023-07-22T13:27:35;1.65;;;0.50;;
42964;SDS011;28604;51.204;22.552;2023-07-22T13:30:04;1.23;;;0.63;;
42964;SDS011;28604;51.204;22.552;2023-07-22T13:32:31;0.40;;;0.40;;
42964;SDS011;28604;51.204;22.552;2023-07-22T13:34:57;2.35;;;0.50;;
42964;SDS011;28604;51.204;22.552;2023-07-22T13:37:23;2.40;;;0.30;;
42964;SDS011;28604;51.204;22.552;2023-07-22T13:39:49;2.22;;;0.20;;
42964;SDS011;28604;51.204;22.552;2023-07-22T13:42:15;3.75;;;0.20;;
42964;SDS011;28604;51.204;22.552;2023-07-22T13:44:41;0.35;;;0.35;;
42964;SDS011;28604;51.204;22.552;2023-07-22T13:47:07;5.82;;;0.30;;
42964;SDS011;28604;51.204;22.552;2023-07-22T13:49:33;3.60;;;0.32;;
42964;SDS011;28604;51.204;22.552;2023-07-22T13:51:59;2.47;;;2.22;;
42964;SDS011;28604;51.204;22.552;2023-07-22T13:54:25;0.88;;;0.85;;
42964;SDS011;28604;51.204;22.552;2023-07-22T13:56:51;1.75;;;0.38;;
42964;SDS011;28604;51.204;22.552;2023-07-22T13:59:17;0.50;;;0.40;;
42964;SDS011;28604;51.204;22.552;2023-07-22T14:01:43;1.58;;;0.40;;
42964;SDS011;28604;51.204;22.552;2023-07-22T14:04:09;0.68;;;0.30;;
42964;SDS011;28604;51.204;22.552;2023-07-22T14:06:34;2.17;;;0.35;;
42964;SDS011;28604;51.204;22.552;2023-07-22T14:09:00;0.90;;;0.20;;
42964;SDS011;28604;51.204;22.552;2023-07-22T14:11:26;0.28;;;0.28;;
42964;SDS011;28604;51.204;22.552;2023-07-22T14:13:52;3.08;;;0.60;;
42964;SDS011;28604;51.204;22.552;2023-07-22T14:16:18;0.30;;;0.30;;
42964;SDS011;28604;51.204;22.552;2023-07-22T14:18:44;1.80;;;0.20;;
42964;SDS011;28604;51.204;22.552;2023-07-22T14:21:10;1.23;;;0.30;;
42964;SDS011;28604;51.204;22.552;2023-07-22T14:23:37;1.23;;;0.20;;
42964;SDS011;28604;51.204;22.552;2023-07-22T14:26:03;1.98;;;0.20;;
42964;SDS011;28604;51.204;22.552;2023-07-22T14:28:29;2.20;;;0.30;;
42964;SDS011;28604;51.204;22.552;2023-07-22T14:30:55;1.75;;;0.50;;
42964;SDS011;28604;51.204;22.552;2023-07-22T14:33:21;1.30;;;0.60;;
42964;SDS011;28604;51.204;22.552;2023-07-22T14:35:46;1.98;;;0.30;;
42964;SDS011;28604;51.204;22.552;2023-07-22T14:38:12;2.92;;;0.80;;
42964;SDS011;28604;51.204;22.552;2023-07-22T14:40:38;0.75;;;0.30;;
42964;SDS011;28604;51.204;22.552;2023-07-22T14:43:04;0.35;;;0.35;;
42964;SDS011;28604;51.204;22.552;2023-07-22T14:45:30;2.80;;;0.35;;
42964;SDS011;28604;51.204;22.552;2023-07-22T14:47:56;2.47;;;0.65;;
42964;SDS011;28604;51.204;22.552;2023-07-22T14:50:22;1.38;;;0.20;;
42964;SDS011;28604;51.204;22.552;2023-07-22T14:52:48;4.05;;;0.52;;
42964;SDS011;28604;51.204;22.552;2023-07-22T14:55:14;0.52;;;0.28;;
42964;SDS011;28604;51.204;22.552;2023-07-22T14:57:40;2.00;;;0.40;;
42964;SDS011;28604;51.204;22.552;2023-07-22T15:00:06;0.93;;;0.30;;
42964;SDS011;28604;51.204;22.552;2023-07-22T15:02:32;1.35;;;0.32;;